createdAt,value
2023-03-23T16:00:11.425Z,13.37
2023-03-23T16:05:34.301Z,13.29
2023-03-23T16:11:03.214Z,13.25
2023-03-23T16:16:50.767Z,13.22
2023-03-23T16:22:12.365Z,13.22
2023-03-23T16:27:36.923Z,13.20
2023-03-23T16:33:00.403Z,13.17
2023-03-23T16:38:25.637Z,12.90
2023-03-23T16:43:48.366Z,11.69
2023-03-23T16:49:10.773Z,11.19
2023-03-23T16:54:37.753Z,10.59
2023-03-23T17:00:01.267Z,10.44
2023-03-23T17:05:26.901Z,10.33
2023-03-23T17:10:54.924Z,10.24
2023-03-23T17:16:21.179Z,10.14
2023-03-23T17:21:50.562Z,10.10
2023-03-23T17:27:14.730Z,9.89
2023-03-23T17:32:37.750Z,9.65
2023-03-23T17:38:06.186Z,9.46
2023-03-23T17:43:30.877Z,9.43
2023-03-23T17:49:04.284Z,9.51
2023-03-23T17:54:29.633Z,9.65
2023-03-23T17:59:59.585Z,9.93
2023-03-23T18:05:22.069Z,10.33
2023-03-23T18:10:45.122Z,10.62
2023-03-23T18:16:08.581Z,10.68
2023-03-23T18:21:30.970Z,10.96
2023-03-23T18:26:53.519Z,11.28
2023-03-23T18:32:17.400Z,11.23
2023-03-23T18:37:44.017Z,11.18
2023-03-23T18:43:11.766Z,11.24
2023-03-23T18:48:38.343Z,11.14
2023-03-23T18:54:06.099Z,11.26
2023-03-23T18:59:30.232Z,11.22
2023-03-23T19:04:53.506Z,11.12
2023-03-23T19:10:17.430Z,11.32
2023-03-23T19:15:42.683Z,11.03
2023-03-23T19:21:14.962Z,10.81
2023-03-23T19:26:49.875Z,10.02
2023-03-23T19:32:16.006Z,10.02
2023-03-23T19:37:41.839Z,9.94
2023-03-23T19:43:10.179Z,9.80
2023-03-23T19:48:46.598Z,9.67
2023-03-23T19:54:10.388Z,9.60
2023-03-23T19:59:34.038Z,9.50
2023-03-23T20:04:57.203Z,9.42
2023-03-23T20:10:20.703Z,9.46
2023-03-23T20:15:44.701Z,9.35
2023-03-23T20:21:20.141Z,9.23
2023-03-23T20:26:48.846Z,9.02
2023-03-23T20:32:12.849Z,8.85
2023-03-23T20:37:38.439Z,8.68
2023-03-23T20:43:02.861Z,8.60
2023-03-23T20:48:25.566Z,8.43
2023-03-23T20:53:50.568Z,8.62
2023-03-23T20:59:13.567Z,8.73
2023-03-23T21:04:40.281Z,8.71
2023-03-23T21:10:02.890Z,8.49
2023-03-23T21:15:25.391Z,8.47
2023-03-23T21:20:49.901Z,8.50
2023-03-23T21:26:16.328Z,8.37
2023-03-23T21:31:40.102Z,8.27
2023-03-23T21:37:02.699Z,8.23
2023-03-23T21:48:01.408Z,8.28
2023-03-23T21:53:25.844Z,8.28
2023-03-23T21:58:48.928Z,8.27
2023-03-23T22:04:11.594Z,8.13
2023-03-23T22:09:34.658Z,8.03
2023-03-23T22:14:57.891Z,8.23
2023-03-23T22:20:22.395Z,8.23
2023-03-23T22:25:44.888Z,7.97
2023-03-23T22:31:17.037Z,7.92
2023-03-23T22:36:41.721Z,7.76
2023-03-23T22:42:04.218Z,7.71
2023-03-23T22:47:26.593Z,7.66
2023-03-23T22:52:49.894Z,7.59
2023-03-23T22:58:12.130Z,7.60
2023-03-23T23:03:37.107Z,7.44
2023-03-23T23:09:00.992Z,7.30
2023-03-23T23:14:23.357Z,7.28
2023-03-23T23:19:45.635Z,7.23
2023-03-23T23:25:07.997Z,7.16
2023-03-23T23:30:34.706Z,7.02
2023-03-23T23:35:57.317Z,7.01
2023-03-23T23:41:19.777Z,7.16
2023-03-23T23:46:42.920Z,7.24
2023-03-23T23:52:05.850Z,7.26
2023-03-23T23:57:28.396Z,7.22
